createdAt,value
2022-11-08T00:04:12.417Z,8.3
2022-11-08T00:09:34.864Z,8.3
2022-11-08T00:14:40.608Z,8.3
2022-11-08T00:20:17.760Z,8.3
2022-11-08T00:25:55.125Z,8.3
2022-11-08T00:31:16.741Z,8.3
2022-11-08T00:36:53.499Z,8.3
2022-11-08T00:42:31.850Z,8.3
2022-11-08T00:48:08.909Z,8.3
2022-11-08T00:53:45.626Z,8.2
2022-11-08T00:59:45.750Z,8.1
2022-11-08T01:05:23.639Z,8.1
2022-11-08T01:10:45.133Z,8.1
2022-11-08T01:16:07.523Z,8.1
2022-11-08T01:21:29.646Z,8.1
2022-11-08T01:27:06.880Z,8
2022-11-08T01:32:44.655Z,8
2022-11-08T01:38:22.677Z,8
2022-11-08T01:43:43.977Z,8
2022-11-08T01:49:07.572Z,8
2022-11-08T01:54:29.374Z,8
2022-11-08T02:00:05.113Z,8
2022-11-08T02:05:43.151Z,8
2022-11-08T02:11:04.268Z,8
2022-11-08T02:16:46.279Z,8
2022-11-08T02:22:08.824Z,8.1
2022-11-08T02:27:46.338Z,8.1
2022-11-08T02:33:06.833Z,8.1
2022-11-08T02:38:45.243Z,8.2
2022-11-08T02:44:21.534Z,8.2
2022-11-08T02:50:01.428Z,8.3
2022-11-08T02:55:39.130Z,8.3
2022-11-08T03:01:00.198Z,8.3
2022-11-08T03:06:37.923Z,8.4
2022-11-08T03:11:45.419Z,8.4
2022-11-08T03:17:23.502Z,8.4
2022-11-08T03:23:04.851Z,8.4
2022-11-08T03:28:43.322Z,8.4
2022-11-08T03:34:19.857Z,8.4
2022-11-08T03:39:40.796Z,8.4
2022-11-08T03:45:02.906Z,8.5
2022-11-08T03:50:39.983Z,8.5
2022-11-08T03:56:16.672Z,8.5
2022-11-08T04:01:54.549Z,8.5
2022-11-08T04:07:16.578Z,8.6
2022-11-08T04:12:53.738Z,8.6
2022-11-08T04:18:36.620Z,8.6
2022-11-08T04:24:14.161Z,8.6
2022-11-08T04:29:35.675Z,8.6
2022-11-08T04:34:57.794Z,8.6
2022-11-08T04:40:20.622Z,8.6
2022-11-08T04:45:29.922Z,8.6
2022-11-08T04:51:14.045Z,8.7
2022-11-08T04:56:51.183Z,8.7
2022-11-08T05:02:04.331Z,8.7
2022-11-08T05:07:27.286Z,8.7
2022-11-08T05:13:10.335Z,8.7
2022-11-08T05:18:32.555Z,8.7
2022-11-08T05:24:17.507Z,8.7
2022-11-08T05:29:58.674Z,8.8
2022-11-08T05:35:35.218Z,8.8
2022-11-08T05:41:22.508Z,8.8
2022-11-08T05:46:44.124Z,8.9
2022-11-08T05:52:05.161Z,9
2022-11-08T05:57:43.760Z,9.2
2022-11-08T06:03:23.572Z,9.5
2022-11-08T06:09:06.115Z,9.8
2022-11-08T06:14:45.106Z,10.3
2022-11-08T06:20:22.538Z,10.9
2022-11-08T06:26:04.074Z,11.6
2022-11-08T06:31:43.252Z,12.4
2022-11-08T06:37:06.518Z,13.1
2022-11-08T06:42:32.764Z,13.5
2022-11-08T06:47:56.379Z,13.9
2022-11-08T06:53:39.202Z,14.3
2022-11-08T06:59:21.108Z,14.6
2022-11-08T07:05:01.027Z,15.1
2022-11-08T07:10:25.702Z,15.4
2022-11-08T07:16:02.419Z,15.7
2022-11-08T07:21:40.957Z,15.8
2022-11-08T07:27:18.817Z,15.8
2022-11-08T07:32:57.591Z,15.8
2022-11-08T07:38:20.226Z,15.8
2022-11-08T07:44:25.653Z,15.9
2022-11-08T07:50:02.088Z,16.2
2022-11-08T07:55:44.003Z,16.6
2022-11-08T08:01:21.717Z,17.4
2022-11-08T08:07:00.553Z,18.4
2022-11-08T08:12:44.287Z,19.7
2022-11-08T08:18:21.850Z,21
2022-11-08T08:23:45.633Z,21.8
2022-11-08T08:29:23.499Z,22.2
2022-11-08T08:35:36.130Z,22.4
2022-11-08T08:41:20.373Z,22.5
2022-11-08T08:47:00.346Z,22.6
2022-11-08T08:52:37.757Z,22.7
2022-11-08T08:58:14.999Z,22.9
2022-11-08T09:06:25.863Z,23.9
2022-11-08T09:11:48.648Z,25.1
2022-11-08T09:17:13.450Z,26.7
2022-11-08T09:22:36.634Z,28.9
2022-11-08T09:27:58.215Z,30.3
2022-11-08T09:33:45.058Z,30.9
2022-11-08T09:39:15.488Z,31.3
2022-11-08T09:44:38.688Z,31.8
2022-11-08T09:50:00.963Z,32.4
2022-11-08T09:55:41.230Z,33.3
2022-11-08T10:01:22.146Z,33.9
2022-11-08T10:07:03.338Z,36.5
2022-11-08T10:12:26.208Z,39.1
2022-11-08T10:18:16.198Z,42.9
2022-11-08T10:23:38.728Z,50.9
2022-11-08T10:29:19.265Z,46.9
2022-11-08T10:34:56.607Z,36.4
2022-11-08T10:40:34.557Z,41.6
2022-11-08T10:46:17.700Z,54.2
2022-11-08T10:51:57.630Z,55.3
2022-11-08T10:57:34.945Z,47.9
2022-11-08T11:03:15.308Z,50.5
2022-11-08T11:08:53.564Z,43.3
2022-11-08T11:14:34.943Z,37.9
2022-11-08T11:19:57.855Z,36.8
2022-11-08T11:25:35.522Z,36.9
2022-11-08T11:31:13.135Z,38.3
2022-11-08T11:36:51.569Z,39.6
2022-11-08T11:42:56.137Z,40.9
2022-11-08T11:48:37.911Z,41.8
2022-11-08T11:54:21.578Z,42.8
2022-11-08T11:59:59.563Z,42.7
2022-11-08T12:05:41.185Z,51.6
2022-11-08T12:11:04.666Z,54.9
2022-11-08T12:16:46.224Z,46.1
2022-11-08T12:22:28.890Z,48.8
2022-11-08T12:28:07.160Z,50.2
2022-11-08T12:33:46.775Z,49.3
2022-11-08T12:39:23.714Z,48.3
2022-11-08T12:45:02.125Z,47.1
2022-11-08T12:50:39.557Z,48.3
2022-11-08T12:56:21.629Z,45.1
2022-11-08T13:02:01.200Z,43.3
2022-11-08T13:07:44.250Z,41.9
2022-11-08T13:13:21.208Z,40.3
2022-11-08T13:18:59.692Z,40.3
2022-11-08T13:25:01.240Z,43.3
2022-11-08T13:30:41.947Z,45.9
2022-11-08T13:36:04.515Z,47.4
2022-11-08T13:41:46.528Z,47.8
2022-11-08T13:47:23.523Z,47.8
2022-11-08T13:53:02.659Z,47.1
2022-11-08T13:58:40.913Z,45.9
2022-11-08T14:04:19.366Z,44.8
2022-11-08T14:10:06.290Z,43.4
2022-11-08T14:15:44.086Z,42
2022-11-08T14:21:20.828Z,40.1
2022-11-08T14:27:05.886Z,38.4
2022-11-08T14:32:49.783Z,36.4
2022-11-08T14:38:30.019Z,34.5
2022-11-08T14:44:08.325Z,32.6
2022-11-08T14:49:46.560Z,30.6
2022-11-08T14:55:14.809Z,28.8
2022-11-08T15:00:53.016Z,26.9
2022-11-08T15:06:15.389Z,25.2
2022-11-08T15:11:53.490Z,23.6
2022-11-08T15:17:37.200Z,22
2022-11-08T15:23:15.038Z,20.6
2022-11-08T15:28:54.359Z,19.4
2022-11-08T15:34:37.352Z,18.3
2022-11-08T15:40:03.811Z,17.4
2022-11-08T15:45:25.378Z,16.8
2022-11-08T15:51:03.533Z,16.1
2022-11-08T15:56:41.165Z,15.4
2022-11-08T16:02:19.496Z,14.9
2022-11-08T16:07:42.330Z,14.4
2022-11-08T16:13:24.680Z,13.9
2022-11-08T16:18:52.539Z,13.5
2022-11-08T16:24:36.375Z,13.1
2022-11-08T16:29:58.146Z,12.8
2022-11-08T16:35:35.540Z,12.4
2022-11-08T16:40:57.938Z,12.2
2022-11-08T16:46:53.602Z,11.9
2022-11-08T16:52:32.034Z,11.7
2022-11-08T16:58:40.718Z,11.5
2022-11-08T17:04:03.383Z,11.4
2022-11-08T17:09:30.988Z,11.3
2022-11-08T17:15:09.507Z,11.1
2022-11-08T17:20:53.620Z,11
2022-11-08T17:27:08.835Z,10.9
2022-11-08T17:32:46.488Z,10.9
2022-11-08T17:38:26.035Z,10.9
2022-11-08T17:44:07.171Z,10.9
2022-11-08T17:49:45.390Z,10.9
2022-11-08T17:55:26.558Z,10.8
2022-11-08T18:00:48.039Z,10.7
2022-11-08T18:06:28.241Z,10.6
2022-11-08T18:12:10.322Z,10.6
2022-11-08T18:17:36.485Z,10.5
2022-11-08T18:22:44.085Z,10.4
2022-11-08T18:28:12.417Z,10.3
2022-11-08T18:33:55.423Z,10.2
2022-11-08T18:39:36.376Z,10.1
2022-11-08T18:45:14.643Z,10
2022-11-08T18:50:58.516Z,9.9
2022-11-08T18:56:36.058Z,9.8
2022-11-08T19:02:19.063Z,9.8
2022-11-08T19:07:28.947Z,9.7
2022-11-08T19:13:06.574Z,9.6
2022-11-08T19:18:28.489Z,9.5
2022-11-08T19:24:05.040Z,9.4
2022-11-08T19:29:45.319Z,9.4
2022-11-08T19:35:07.951Z,9.4
2022-11-08T19:40:50.034Z,9.3
2022-11-08T19:45:57.598Z,9.2
2022-11-08T19:51:20.363Z,9.1
2022-11-08T19:56:37.929Z,8.9
2022-11-08T20:02:11.752Z,8.8
2022-11-08T20:07:34.724Z,8.6
2022-11-08T20:12:57.641Z,8.4
2022-11-08T20:18:06.014Z,8.3
2022-11-08T20:23:44.189Z,8.2
2022-11-08T20:29:13.181Z,8.1
2022-11-08T20:34:55.377Z,8.1
2022-11-08T20:40:20.610Z,8.1
2022-11-08T20:45:48.291Z,8.1
2022-11-08T20:51:36.045Z,8.1
2022-11-08T20:57:18.900Z,8.1
2022-11-08T21:03:19.028Z,8
2022-11-08T21:11:34.254Z,7.9
2022-11-08T21:17:37.374Z,7.8
2022-11-08T21:30:22.562Z,7.4
2022-11-08T21:36:01.173Z,7.3
2022-11-08T21:41:37.951Z,7.1
2022-11-08T21:47:19.997Z,6.9
2022-11-08T21:53:03.041Z,6.8
2022-11-08T21:58:46.817Z,6.7
2022-11-08T22:03:54.214Z,6.6
2022-11-08T22:09:23.215Z,6.6
2022-11-08T22:14:59.968Z,6.5
2022-11-08T22:20:44.630Z,6.4
2022-11-08T22:25:51.436Z,6.4
2022-11-08T22:30:57.491Z,6.3
2022-11-08T22:36:19.621Z,6.2
2022-11-08T22:41:46.141Z,6.1
2022-11-08T22:47:07.767Z,5.9
2022-11-08T22:52:33.746Z,5.8
2022-11-08T22:57:25.195Z,5.8
2022-11-08T23:02:16.214Z,5.8
2022-11-08T23:07:39.606Z,5.8
2022-11-08T23:12:46.832Z,5.8
2022-11-08T23:18:08.835Z,5.8
2022-11-08T23:23:31.049Z,5.9
2022-11-08T23:28:40.722Z,5.9
2022-11-08T23:33:31.441Z,5.9
2022-11-08T23:38:56.728Z,6
2022-11-08T23:44:18.559Z,6
2022-11-08T23:49:39.750Z,6
2022-11-08T23:54:46.128Z,5.9
